Time;durP1;ratioP1;P1;durP2;ratioP2;P2;SDS_P1;SDS_P2;PMS_P1;PMS_P2;Temp;Humidity;BMP_temperature;BMP_pressure;BME280_temperature;BME280_humidity;BME280_pressure;Samples;Min_cycle;Max_cycle;Signal;HPM_P1;HPM_P2
2022/03/06 00:01:03;;;;;;;;;;;8.90;66.00;;;;;;5071476;28;20450;-70
2022/03/06 00:03:28;;;;;;;;;;;8.80;66.00;;;;;;5087218;28;19927;-71
2022/03/06 00:05:54;;;;;;;;;;;8.70;66.00;;;;;;5089211;28;20361;-70
2022/03/06 00:08:19;;;;;;;;;;;8.60;65.90;;;;;;5085822;28;19912;-70
2022/03/06 00:10:45;;;;;;;;;;;8.50;66.10;;;;;;5069190;28;19923;-70
2022/03/06 00:13:11;;;;;;;;;;;8.40;66.10;;;;;;5086071;28;19920;-70
2022/03/06 00:15:37;;;;;;;;;;;8.30;66.30;;;;;;5087384;28;20345;-70
2022/03/06 00:18:02;;;;;;;;;;;8.20;66.40;;;;;;5070066;28;19939;-70
2022/03/06 00:20:28;;;;;;;;;;;8.20;66.50;;;;;;5088243;28;19997;-70
2022/03/06 00:22:54;;;;;;;;;;;8.10;66.60;;;;;;5086059;28;19974;-70
2022/03/06 00:25:20;;;;;;;;;;;8.00;66.70;;;;;;5088045;28;19908;-70
2022/03/06 00:27:45;;;;;;;;;;;7.90;66.60;;;;;;5084893;28;20440;-69
2022/03/06 00:30:11;;;;;;;;;;;7.80;66.70;;;;;;5086824;28;19919;-69
2022/03/06 00:32:36;;;;;;;;;;;7.80;66.90;;;;;;5069763;28;20381;-70
2022/03/06 00:35:02;;;;;;;;;;;7.70;67.00;;;;;;5086616;28;19912;-70
2022/03/06 00:37:28;;;;;;;;;;;7.60;67.10;;;;;;5069670;28;19998;-70
2022/03/06 00:39:53;;;;;;;;;;;7.50;67.10;;;;;;5086934;28;19916;-70
2022/03/06 00:42:18;;;;;;;;;;;7.40;67.10;;;;;;5088136;28;19912;-70
2022/03/06 00:44:44;;;;;;;;;;;7.40;67.20;;;;;;5067849;28;20418;-70
2022/03/06 00:47:09;;;;;;;;;;;7.30;67.50;;;;;;5069172;28;19908;-69
2022/03/06 00:49:35;;;;;;;;;;;7.20;67.50;;;;;;5086136;28;19943;-70
2022/03/06 00:52:01;;;;;;;;;;;7.20;67.60;;;;;;5089985;28;20015;-70
2022/03/06 00:54:27;;;;;;;;;;;7.10;67.70;;;;;;5066996;28;20388;-70
2022/03/06 00:56:52;;;;;;;;;;;7.00;67.60;;;;;;5087021;28;19912;-69
2022/03/06 00:59:18;;;;;;;;;;;7.00;67.90;;;;;;5086485;28;19919;-70
2022/03/06 01:01:43;;;;;;;;;;;6.90;67.90;;;;;;5085933;28;19924;-70
2022/03/06 01:04:09;;;;;;;;;;;6.80;68.10;;;;;;5086035;28;20404;-70
2022/03/06 01:06:36;;;;;;;;;;;6.80;68.10;;;;;;5087182;28;19971;-70
2022/03/06 01:09:02;;;;;;;;;;;6.70;68.20;;;;;;5067178;28;20649;-70
2022/03/06 01:11:27;;;;;;;;;;;6.70;68.30;;;;;;5087770;28;20008;-70
2022/03/06 01:13:53;;;;;;;;;;;6.60;67.90;;;;;;5066823;28;20346;-70
2022/03/06 01:16:18;;;;;;;;;;;6.50;68.20;;;;;;5069073;28;20322;-70
2022/03/06 01:18:44;;;;;;;;;;;6.50;67.90;;;;;;5085671;28;19908;-70
2022/03/06 01:21:09;;;;;;;;;;;6.40;68.00;;;;;;5086744;28;19911;-70
2022/03/06 01:23:35;;;;;;;;;;;6.40;68.20;;;;;;5086378;28;19966;-69
2022/03/06 01:26:01;;;;;;;;;;;6.30;68.20;;;;;;5069264;28;19916;-70
2022/03/06 01:28:26;;;;;;;;;;;6.30;68.20;;;;;;5086485;28;20505;-70
2022/03/06 01:30:52;;;;;;;;;;;6.20;68.40;;;;;;5086533;28;19935;-70
2022/03/06 01:33:17;;;;;;;;;;;6.20;68.50;;;;;;5085397;28;20050;-70
2022/03/06 01:35:43;;;;;;;;;;;6.10;68.60;;;;;;5069961;28;20682;-70
2022/03/06 01:38:08;;;;;;;;;;;6.10;68.70;;;;;;5066317;28;20440;-69
2022/03/06 01:40:34;;;;;;;;;;;6.00;68.50;;;;;;5087723;28;20381;-70
2022/03/06 01:43:00;;;;;;;;;;;6.00;68.60;;;;;;5067012;28;19955;-69
2022/03/06 01:45:25;;;;;;;;;;;5.90;69.30;;;;;;5068814;28;19916;-69
2022/03/06 01:47:52;;;;;;;;;;;5.90;68.70;;;;;;5067214;28;19916;-70
2022/03/06 01:50:19;;;;;;;;;;;5.80;68.80;;;;;;5086501;28;19967;-70
2022/03/06 01:52:45;;;;;;;;;;;5.80;68.60;;;;;;5085616;28;20377;-70
2022/03/06 01:55:11;;;;;;;;;;;5.80;68.80;;;;;;5086809;28;19916;-70
2022/03/06 01:57:38;;;;;;;;;;;5.70;68.70;;;;;;5066661;28;19927;-69
2022/03/06 02:00:05;;;;;;;;;;;5.60;68.70;;;;;;5087111;28;19915;-70
2022/03/06 02:02:32;;;;;;;;;;;5.60;68.80;;;;;;5084596;28;19947;-70
2022/03/06 02:04:59;;;;;;;;;;;5.60;69.50;;;;;;5091393;28;19908;-70
2022/03/06 02:07:25;;;;;;;;;;;5.50;69.00;;;;;;5089811;28;20558;-70
2022/03/06 02:09:51;;;;;;;;;;;5.50;69.30;;;;;;5072569;28;19916;-70
2022/03/06 02:12:23;;;;;;;;;;;5.40;69.10;;;;;;5088769;28;19920;-70
2022/03/06 02:14:53;;;;;;;;;;;5.40;69.30;;;;;;5071872;28;20030;-70
2022/03/06 02:17:18;;;;;;;;;;;5.30;69.30;;;;;;5071994;28;19932;-69
2022/03/06 02:19:56;;;;;;;;;;;5.30;69.30;;;;;;5071125;28;19942;-69
2022/03/06 02:22:26;;;;;;;;;;;5.30;69.40;;;;;;5088141;28;20397;-70
2022/03/06 02:24:51;;;;;;;;;;;5.20;69.50;;;;;;5089666;28;20565;-69
2022/03/06 02:27:18;;;;;;;;;;;5.20;69.50;;;;;;5070607;28;19928;-70
2022/03/06 02:29:44;;;;;;;;;;;5.10;69.50;;;;;;5090551;28;19915;-69
2022/03/06 02:32:10;;;;;;;;;;;5.10;69.70;;;;;;5087380;28;19935;-69
2022/03/06 02:34:37;;;;;;;;;;;5.10;69.80;;;;;;5090937;28;20057;-70
2022/03/06 02:37:03;;;;;;;;;;;5.00;69.30;;;;;;5089662;28;19923;-70
2022/03/06 02:39:28;;;;;;;;;;;5.00;69.90;;;;;;5088663;28;19916;-69
2022/03/06 02:41:54;;;;;;;;;;;5.00;70.00;;;;;;5088152;28;19958;-70
2022/03/06 02:44:21;;;;;;;;;;;4.90;70.00;;;;;;5092901;28;19919;-70
2022/03/06 02:46:46;;;;;;;;;;;4.90;70.10;;;;;;5071427;28;20686;-69
2022/03/06 02:49:13;;;;;;;;;;;4.90;70.20;;;;;;5071493;28;19912;-69
2022/03/06 02:51:40;;;;;;;;;;;4.80;70.30;;;;;;5090311;28;19916;-70
2022/03/06 02:54:05;;;;;;;;;;;4.80;70.50;;;;;;5087649;28;19908;-69
2022/03/06 02:56:31;;;;;;;;;;;4.80;70.50;;;;;;5087781;28;20030;-69
2022/03/06 02:58:56;;;;;;;;;;;4.70;71.00;;;;;;5088293;28;19950;-69
2022/03/06 03:01:22;;;;;;;;;;;4.70;70.70;;;;;;5069421;28;20006;-69
2022/03/06 03:03:48;;;;;;;;;;;4.60;71.10;;;;;;5089336;28;19963;-70
2022/03/06 03:06:13;;;;;;;;;;;4.60;71.00;;;;;;5088365;28;20032;-70
2022/03/06 03:08:39;;;;;;;;;;;4.60;71.30;;;;;;5088503;28;19935;-70
2022/03/06 03:11:04;;;;;;;;;;;4.60;71.00;;;;;;5059433;28;20411;-70
2022/03/06 03:13:30;;;;;;;;;;;4.50;71.60;;;;;;5087304;28;19920;-69
2022/03/06 03:15:55;;;;;;;;;;;4.50;71.80;;;;;;5069281;28;19921;-69
2022/03/06 03:18:21;;;;;;;;;;;4.40;72.00;;;;;;5067389;28;19926;-69
2022/03/06 03:20:49;;;;;;;;;;;4.40;72.10;;;;;;5089162;28;19942;-69
2022/03/06 03:23:14;;;;;;;;;;;4.40;72.20;;;;;;5068502;28;19919;-69
2022/03/06 03:25:40;;;;;;;;;;;4.40;72.40;;;;;;5070528;28;19913;-69
2022/03/06 03:28:05;;;;;;;;;;;4.40;72.30;;;;;;5069515;28;20315;-69
2022/03/06 03:30:31;;;;;;;;;;;4.30;72.40;;;;;;5087121;28;19916;-69
2022/03/06 03:32:56;;;;;;;;;;;4.30;72.50;;;;;;5087373;28;20010;-69
2022/03/06 03:35:22;;;;;;;;;;;4.30;72.40;;;;;;5089231;28;19912;-70
2022/03/06 03:37:47;;;;;;;;;;;4.30;72.70;;;;;;5088187;28;20048;-69
2022/03/06 03:40:13;;;;;;;;;;;4.30;72.70;;;;;;5070768;28;19993;-70
2022/03/06 03:42:38;;;;;;;;;;;4.20;72.60;;;;;;5070611;28;19961;-69
2022/03/06 03:45:05;;;;;;;;;;;4.20;72.80;;;;;;5086712;28;19914;-70
2022/03/06 03:47:30;;;;;;;;;;;4.20;72.60;;;;;;5086001;28;19973;-69
2022/03/06 03:49:56;;;;;;;;;;;4.20;73.00;;;;;;5089202;28;19912;-70
2022/03/06 03:52:21;;;;;;;;;;;4.20;73.00;;;;;;5068719;28;20288;-70
2022/03/06 03:54:47;;;;;;;;;;;4.20;73.20;;;;;;5088490;28;20369;-69
2022/03/06 03:57:13;;;;;;;;;;;4.20;73.10;;;;;;5086023;28;19916;-70
2022/03/06 03:59:40;;;;;;;;;;;4.20;73.10;;;;;;5088533;28;19950;-69
2022/03/06 04:02:06;;;;;;;;;;;4.10;73.20;;;;;;5088050;28;20002;-69
2022/03/06 04:04:31;;;;;;;;;;;4.10;73.30;;;;;;5087669;28;20428;-69
2022/03/06 04:06:57;;;;;;;;;;;4.10;73.90;;;;;;5088218;28;19912;-69
2022/03/06 04:09:23;;;;;;;;;;;4.10;73.50;;;;;;5088737;28;20327;-70
2022/03/06 04:11:48;;;;;;;;;;;4.10;73.50;;;;;;5084508;28;19956;-70
2022/03/06 04:14:14;;;;;;;;;;;4.10;73.50;;;;;;5089053;28;20599;-70
2022/03/06 04:16:39;;;;;;;;;;;4.10;73.70;;;;;;5084096;28;20416;-69
2022/03/06 04:19:05;;;;;;;;;;;4.10;73.70;;;;;;5069720;28;20385;-69
2022/03/06 04:21:31;;;;;;;;;;;4.10;73.70;;;;;;5086607;28;19928;-69
2022/03/06 04:23:56;;;;;;;;;;;4.00;73.70;;;;;;5069954;28;19912;-70
2022/03/06 04:26:22;;;;;;;;;;;4.10;73.80;;;;;;5069665;28;19912;-69
2022/03/06 04:28:47;;;;;;;;;;;4.00;73.80;;;;;;5088170;28;19915;-69
2022/03/06 04:31:13;;;;;;;;;;;4.00;73.80;;;;;;5068999;28;19920;-69
2022/03/06 04:33:38;;;;;;;;;;;4.00;74.00;;;;;;5083379;28;19908;-70
2022/03/06 04:36:04;;;;;;;;;;;4.00;74.00;;;;;;5086633;28;20399;-69
2022/03/06 04:38:30;;;;;;;;;;;4.00;73.90;;;;;;5089114;28;19924;-69
2022/03/06 04:40:55;;;;;;;;;;;4.00;74.10;;;;;;5087310;28;19916;-69
2022/03/06 04:43:22;;;;;;;;;;;4.00;74.10;;;;;;5069030;28;19916;-69
2022/03/06 04:45:48;;;;;;;;;;;3.90;74.00;;;;;;5068353;28;19954;-69
2022/03/06 04:48:13;;;;;;;;;;;4.00;74.10;;;;;;5086122;28;19912;-69
2022/03/06 04:50:39;;;;;;;;;;;3.90;73.90;;;;;;5069034;28;19915;-69
2022/03/06 04:53:04;;;;;;;;;;;3.90;74.00;;;;;;5085986;28;19912;-70
2022/03/06 04:55:30;;;;;;;;;;;3.90;74.10;;;;;;5087473;28;20606;-69
2022/03/06 04:57:55;;;;;;;;;;;3.90;74.20;;;;;;5086015;28;19916;-70
2022/03/06 05:00:21;;;;;;;;;;;3.90;74.20;;;;;;5087852;28;19920;-70
2022/03/06 05:02:47;;;;;;;;;;;3.80;74.20;;;;;;5086261;28;19955;-69
2022/03/06 05:05:12;;;;;;;;;;;3.80;74.20;;;;;;5070260;28;19912;-69
2022/03/06 05:07:38;;;;;;;;;;;3.80;74.30;;;;;;5085040;28;20365;-69
2022/03/06 05:10:09;;;;;;;;;;;3.80;74.30;;;;;;5065980;28;19912;-69
2022/03/06 05:12:35;;;;;;;;;;;3.80;74.40;;;;;;5069030;28;20350;-70
2022/03/06 05:15:01;;;;;;;;;;;3.70;74.20;;;;;;5087744;28;19937;-70
2022/03/06 05:17:26;;;;;;;;;;;3.80;74.40;;;;;;5070039;28;19924;-69
2022/03/06 05:19:52;;;;;;;;;;;3.70;74.40;;;;;;5087134;28;19954;-69
2022/03/06 05:22:17;;;;;;;;;;;3.70;74.30;;;;;;5084316;28;19912;-70
2022/03/06 05:24:43;;;;;;;;;;;3.70;74.50;;;;;;5087249;28;20612;-70
2022/03/06 05:27:08;;;;;;;;;;;3.70;74.40;;;;;;5085966;28;19959;-69
2022/03/06 05:29:34;;;;;;;;;;;3.70;74.30;;;;;;5085749;28;19908;-70
2022/03/06 05:31:59;;;;;;;;;;;3.60;74.40;;;;;;5085573;28;19933;-69
2022/03/06 05:34:24;;;;;;;;;;;3.60;74.30;;;;;;5087054;28;19912;-69
2022/03/06 05:36:51;;;;;;;;;;;3.60;74.40;;;;;;5084715;28;19954;-69
2022/03/06 05:39:16;;;;;;;;;;;3.60;74.20;;;;;;5073137;28;19920;-69
2022/03/06 05:41:42;;;;;;;;;;;3.60;74.40;;;;;;5070400;28;19966;-69
2022/03/06 05:44:07;;;;;;;;;;;3.60;74.40;;;;;;5091479;28;19916;-69
2022/03/06 05:46:33;;;;;;;;;;;3.50;74.50;;;;;;5069989;28;20704;-69
2022/03/06 05:48:58;;;;;;;;;;;3.50;74.30;;;;;;5090915;28;19908;-69
2022/03/06 05:51:24;;;;;;;;;;;3.50;74.40;;;;;;5070961;28;19916;-69
2022/03/06 05:53:49;;;;;;;;;;;3.50;74.40;;;;;;5090326;28;19948;-69
2022/03/06 05:56:14;;;;;;;;;;;3.50;74.40;;;;;;5070555;28;20496;-69
2022/03/06 05:58:40;;;;;;;;;;;3.50;74.40;;;;;;5071452;28;20037;-69
2022/03/06 06:01:06;;;;;;;;;;;3.40;74.30;;;;;;5088797;28;20014;-69
2022/03/06 06:03:31;;;;;;;;;;;3.40;74.50;;;;;;5088911;28;19919;-69
2022/03/06 06:05:57;;;;;;;;;;;3.40;74.40;;;;;;5086332;28;19916;-69
2022/03/06 06:08:22;;;;;;;;;;;3.40;74.40;;;;;;5071505;28;19908;-69
2022/03/06 06:10:48;;;;;;;;;;;3.40;74.50;;;;;;5087778;28;19908;-69
2022/03/06 06:13:15;;;;;;;;;;;3.40;74.40;;;;;;5088358;28;19961;-69
2022/03/06 06:15:43;;;;;;;;;;;3.30;74.30;;;;;;5068035;28;19935;-70
2022/03/06 06:18:10;;;;;;;;;;;3.30;74.50;;;;;;5087603;28;19946;-69
2022/03/06 06:20:36;;;;;;;;;;;3.30;74.40;;;;;;5088620;28;19916;-69
2022/03/06 06:23:05;;;;;;;;;;;3.30;74.30;;;;;;5087644;28;19912;-69
2022/03/06 06:25:30;;;;;;;;;;;3.30;74.30;;;;;;5082964;28;19916;-69
2022/03/06 06:27:56;;;;;;;;;;;3.30;74.40;;;;;;5088413;28;20546;-69
2022/03/06 06:30:21;;;;;;;;;;;3.30;74.30;;;;;;5086034;28;19916;-69
2022/03/06 06:32:47;;;;;;;;;;;3.30;74.40;;;;;;5086548;28;20281;-69
2022/03/06 06:35:12;;;;;;;;;;;3.30;74.20;;;;;;5084965;28;20106;-69
2022/03/06 06:37:38;;;;;;;;;;;3.30;74.30;;;;;;5087147;28;20152;-69
2022/03/06 06:40:04;;;;;;;;;;;3.30;74.40;;;;;;5070157;28;20280;-69
2022/03/06 06:42:29;;;;;;;;;;;3.30;74.30;;;;;;5088458;28;19970;-69
2022/03/06 06:44:55;;;;;;;;;;;3.30;74.10;;;;;;5090103;28;19920;-69
2022/03/06 06:47:20;;;;;;;;;;;3.30;74.30;;;;;;5068752;28;19920;-69
2022/03/06 06:49:46;;;;;;;;;;;3.30;74.30;;;;;;5071601;28;19922;-69
2022/03/06 06:52:12;;;;;;;;;;;3.20;74.10;;;;;;5087843;28;19998;-69
2022/03/06 06:54:37;;;;;;;;;;;3.30;74.30;;;;;;5088157;28;20049;-69
2022/03/06 06:57:03;;;;;;;;;;;3.20;74.30;;;;;;5087544;28;19919;-69
2022/03/06 06:59:29;;;;;;;;;;;3.30;74.30;;;;;;5086154;28;19920;-69
2022/03/06 07:01:54;;;;;;;;;;;3.30;74.20;;;;;;5068683;28;19919;-69
2022/03/06 07:04:20;;;;;;;;;;;3.30;74.10;;;;;;5088540;28;19924;-69
2022/03/06 07:06:45;;;;;;;;;;;3.30;74.20;;;;;;5068959;28;19955;-69
2022/03/06 07:09:11;;;;;;;;;;;3.30;74.20;;;;;;5070203;28;19923;-69
2022/03/06 07:11:36;;;;;;;;;;;3.30;74.20;;;;;;5087185;28;19957;-69
2022/03/06 07:14:02;;;;;;;;;;;3.30;74.30;;;;;;5067791;28;19952;-69
2022/03/06 07:16:27;;;;;;;;;;;3.30;74.30;;;;;;5068340;28;19999;-69
2022/03/06 07:18:53;;;;;;;;;;;3.30;74.30;;;;;;5085348;28;20242;-69
2022/03/06 07:21:19;;;;;;;;;;;3.20;74.10;;;;;;5068062;28;19999;-69
2022/03/06 07:23:45;;;;;;;;;;;3.30;74.30;;;;;;5068874;28;20002;-69
2022/03/06 07:26:10;;;;;;;;;;;3.30;74.20;;;;;;5068222;28;19920;-69
2022/03/06 07:28:36;;;;;;;;;;;3.30;74.20;;;;;;5068537;28;19912;-69
2022/03/06 07:31:02;;;;;;;;;;;3.30;74.20;;;;;;5067777;28;19924;-68
2022/03/06 07:33:27;;;;;;;;;;;3.30;74.20;;;;;;5087215;28;19918;-69
2022/03/06 07:35:53;;;;;;;;;;;3.30;74.30;;;;;;5068821;28;19916;-69
2022/03/06 07:38:18;;;;;;;;;;;3.30;74.20;;;;;;5087666;28;19916;-69
2022/03/06 07:40:44;;;;;;;;;;;3.30;74.10;;;;;;5084981;28;19920;-69
2022/03/06 07:43:10;;;;;;;;;;;3.30;74.10;;;;;;5086890;28;19922;-69
2022/03/06 07:45:35;;;;;;;;;;;3.40;74.00;;;;;;5065899;28;20384;-69
2022/03/06 07:48:03;;;;;;;;;;;3.40;73.90;;;;;;5069942;28;19916;-69
2022/03/06 07:50:29;;;;;;;;;;;3.40;74.00;;;;;;5086254;28;19912;-69
2022/03/06 07:52:56;;;;;;;;;;;3.40;74.10;;;;;;5087092;28;19908;-69
2022/03/06 07:55:21;;;;;;;;;;;3.40;74.10;;;;;;5084299;28;20379;-69
2022/03/06 07:57:47;;;;;;;;;;;3.40;74.00;;;;;;5068775;28;19954;-69
2022/03/06 08:00:13;;;;;;;;;;;3.40;74.10;;;;;;5068418;28;19920;-69
2022/03/06 08:02:39;;;;;;;;;;;3.40;73.90;;;;;;5087026;28;20431;-69
2022/03/06 08:05:05;;;;;;;;;;;3.40;74.10;;;;;;5086496;28;19959;-69
2022/03/06 08:07:31;;;;;;;;;;;3.50;74.30;;;;;;5067753;28;19916;-69
2022/03/06 08:09:57;;;;;;;;;;;3.50;74.10;;;;;;5086868;28;19920;-69
2022/03/06 08:12:27;;;;;;;;;;;3.40;74.10;;;;;;5069020;28;19955;-69
2022/03/06 08:14:56;;;;;;;;;;;3.50;74.20;;;;;;5068097;28;19919;-69
2022/03/06 08:17:21;;;;;;;;;;;3.50;74.30;;;;;;5085636;28;19954;-69
2022/03/06 08:19:47;;;;;;;;;;;3.50;74.30;;;;;;5084895;28;20577;-69
2022/03/06 08:22:12;;;;;;;;;;;3.50;74.40;;;;;;5086171;28;19958;-69
2022/03/06 08:24:38;;;;;;;;;;;3.50;74.30;;;;;;5086944;28;19912;-69
2022/03/06 08:27:04;;;;;;;;;;;3.50;74.20;;;;;;5087321;28;19919;-69
2022/03/06 08:29:30;;;;;;;;;;;3.60;74.30;;;;;;5069382;28;20312;-69
2022/03/06 08:31:55;;;;;;;;;;;3.70;74.20;;;;;;5068019;28;19933;-69
2022/03/06 08:34:21;;;;;;;;;;;3.60;74.20;;;;;;5086314;28;20443;-69
2022/03/06 08:36:46;;;;;;;;;;;3.70;74.10;;;;;;5062936;28;19920;-69
2022/03/06 08:39:12;;;;;;;;;;;3.70;74.00;;;;;;5070001;28;19920;-69
2022/03/06 08:41:37;;;;;;;;;;;3.80;73.90;;;;;;5084991;28;20436;-69
2022/03/06 08:44:03;;;;;;;;;;;3.80;73.70;;;;;;5086415;28;19919;-69
2022/03/06 08:46:28;;;;;;;;;;;3.80;73.70;;;;;;5067095;28;19930;-69
2022/03/06 08:48:54;;;;;;;;;;;3.80;73.70;;;;;;5086529;28;19986;-69
2022/03/06 08:51:19;;;;;;;;;;;3.80;73.70;;;;;;5067648;28;19923;-69
2022/03/06 08:53:45;;;;;;;;;;;3.90;73.80;;;;;;5084980;28;19912;-69
2022/03/06 08:56:10;;;;;;;;;;;3.90;73.70;;;;;;5085919;28;19962;-69
2022/03/06 08:58:36;;;;;;;;;;;3.90;73.70;;;;;;5067615;28;19933;-69
2022/03/06 09:01:01;;;;;;;;;;;3.90;73.70;;;;;;5068180;28;19916;-69
2022/03/06 09:03:27;;;;;;;;;;;4.00;73.70;;;;;;5086930;28;20037;-69
2022/03/06 09:05:52;;;;;;;;;;;4.00;73.60;;;;;;5084623;28;19972;-69
2022/03/06 09:08:18;;;;;;;;;;;4.00;73.50;;;;;;5085102;28;19928;-69
2022/03/06 09:10:43;;;;;;;;;;;4.10;73.50;;;;;;5084433;28;19918;-69
2022/03/06 09:13:09;;;;;;;;;;;4.10;73.40;;;;;;5066699;28;20289;-69
2022/03/06 09:15:35;;;;;;;;;;;4.10;73.30;;;;;;5083413;28;19998;-69
2022/03/06 09:18:01;;;;;;;;;;;4.20;73.20;;;;;;5084798;28;20015;-70
2022/03/06 09:20:27;;;;;;;;;;;4.20;73.10;;;;;;5066021;28;20424;-70
2022/03/06 09:22:53;;;;;;;;;;;4.30;73.10;;;;;;5085915;28;19938;-70
2022/03/06 09:25:18;;;;;;;;;;;4.30;73.00;;;;;;5084655;28;19923;-70
2022/03/06 09:27:44;;;;;;;;;;;4.30;72.90;;;;;;5086233;28;19916;-70
2022/03/06 09:30:10;;;;;;;;;;;4.30;72.80;;;;;;5083354;28;19925;-70
2022/03/06 09:32:36;;;;;;;;;;;4.40;72.90;;;;;;5069240;28;19912;-70
2022/03/06 09:35:02;;;;;;;;;;;4.40;72.80;;;;;;5084502;28;19912;-70
2022/03/06 09:37:28;;;;;;;;;;;4.40;72.70;;;;;;5086912;28;19912;-70
2022/03/06 09:39:53;;;;;;;;;;;4.40;72.70;;;;;;5067166;28;19961;-70
2022/03/06 09:42:19;;;;;;;;;;;4.50;72.60;;;;;;5084559;28;20004;-70
2022/03/06 09:44:46;;;;;;;;;;;4.50;72.60;;;;;;5064667;28;19916;-70
2022/03/06 09:47:11;;;;;;;;;;;4.50;72.60;;;;;;5084119;28;19923;-70
2022/03/06 09:49:37;;;;;;;;;;;4.50;72.60;;;;;;5065718;28;19916;-70
2022/03/06 09:52:03;;;;;;;;;;;4.50;72.60;;;;;;5083813;28;19920;-70
2022/03/06 09:54:29;;;;;;;;;;;4.50;72.50;;;;;;5078375;28;19926;-70
2022/03/06 09:56:55;;;;;;;;;;;4.60;72.50;;;;;;5084094;28;19939;-70
2022/03/06 09:59:20;;;;;;;;;;;4.60;72.40;;;;;;5082319;28;19980;-70
2022/03/06 10:01:46;;;;;;;;;;;4.60;72.40;;;;;;5086864;28;19913;-70
2022/03/06 10:04:25;;;;;;;;;;;4.60;72.30;;;;;;5083213;28;19954;-70
2022/03/06 10:07:01;;;;;;;;;;;4.60;72.30;;;;;;5085446;28;19916;-70
2022/03/06 10:09:26;;;;;;;;;;;4.60;72.50;;;;;;5083909;28;19927;-70
2022/03/06 10:11:54;;;;;;;;;;;4.60;72.20;;;;;;5068234;28;19912;-70
2022/03/06 10:14:33;;;;;;;;;;;4.70;72.20;;;;;;5082594;28;19996;-70
2022/03/06 10:17:15;;;;;;;;;;;4.70;72.20;;;;;;5084501;28;19923;-70
2022/03/06 10:19:48;;;;;;;;;;;4.70;72.30;;;;;;5082192;28;19916;-70
2022/03/06 10:22:13;;;;;;;;;;;4.70;72.30;;;;;;5083796;28;19915;-70
2022/03/06 10:25:05;;;;;;;;;;;4.80;72.30;;;;;;5065450;28;20346;-70
2022/03/06 10:27:45;;;;;;;;;;;4.70;72.20;;;;;;5086088;28;20394;-70
2022/03/06 10:30:28;;;;;;;;;;;4.80;72.30;;;;;;5067907;28;19996;-70
2022/03/06 10:32:55;;;;;;;;;;;4.80;72.30;;;;;;5083650;28;19927;-70
2022/03/06 10:35:24;;;;;;;;;;;4.90;72.30;;;;;;5087066;28;20405;-70
2022/03/06 10:37:50;;;;;;;;;;;4.90;72.30;;;;;;5089254;28;19931;-70
2022/03/06 10:40:30;;;;;;;;;;;4.90;72.20;;;;;;5087091;28;20727;-70
2022/03/06 10:42:56;;;;;;;;;;;4.90;72.10;;;;;;5091197;28;19920;-70
2022/03/06 10:45:23;;;;;;;;;;;5.00;71.90;;;;;;5085606;28;19969;-70
2022/03/06 10:47:48;;;;;;;;;;;5.00;71.90;;;;;;5086777;28;20003;-70
2022/03/06 10:50:19;;;;;;;;;;;5.10;72.00;;;;;;5069144;28;20007;-70
2022/03/06 10:52:45;;;;;;;;;;;5.10;72.00;;;;;;5085929;28;19920;-70
2022/03/06 10:55:10;;;;;;;;;;;5.20;71.90;;;;;;5085603;28;19977;-70
2022/03/06 10:57:36;;;;;;;;;;;5.20;71.90;;;;;;5088108;28;20003;-70
2022/03/06 11:00:02;;;;;;;;;;;5.20;71.90;;;;;;5084864;28;19913;-70
2022/03/06 11:02:28;;;;;;;;;;;5.30;71.90;;;;;;5069085;28;20483;-70
2022/03/06 11:04:57;;;;;;;;;;;5.30;71.80;;;;;;5068769;28;19938;-70
2022/03/06 11:07:23;;;;;;;;;;;5.40;71.60;;;;;;5088121;28;19912;-70
2022/03/06 11:09:49;;;;;;;;;;;5.50;71.50;;;;;;5084145;28;19916;-70
2022/03/06 11:12:15;;;;;;;;;;;5.50;71.30;;;;;;5071647;28;20019;-70
2022/03/06 11:14:41;;;;;;;;;;;5.60;71.20;;;;;;5068178;28;20744;-70
2022/03/06 11:17:07;;;;;;;;;;;5.70;71.20;;;;;;5086083;28;20744;-70
2022/03/06 11:19:33;;;;;;;;;;;5.70;70.90;;;;;;5086066;28;20007;-70
2022/03/06 11:22:29;;;;;;;;;;;5.80;70.80;;;;;;5087337;28;20049;-70
2022/03/06 11:24:59;;;;;;;;;;;5.90;70.60;;;;;;4979576;28;19964;-70
2022/03/06 11:27:34;;;;;;;;;;;6.00;70.60;;;;;;5086429;28;19927;-70
2022/03/06 11:30:00;;;;;;;;;;;6.20;70.50;;;;;;5085325;28;19908;-70
2022/03/06 11:32:27;;;;;;;;;;;6.30;70.10;;;;;;5069697;28;19995;-70
2022/03/06 11:34:58;;;;;;;;;;;6.50;70.00;;;;;;5084961;28;20003;-70
2022/03/06 11:37:27;;;;;;;;;;;6.60;69.50;;;;;;5084930;28;19923;-70
2022/03/06 11:39:53;;;;;;;;;;;6.70;69.40;;;;;;5082702;28;20577;-70
2022/03/06 11:42:37;;;;;;;;;;;6.90;69.20;;;;;;5086402;28;19912;-70
2022/03/06 11:45:03;;;;;;;;;;;7.10;69.00;;;;;;5084320;28;20311;-70
2022/03/06 11:47:46;;;;;;;;;;;7.30;68.50;;;;;;5067058;28;19916;-70
2022/03/06 11:50:20;;;;;;;;;;;7.50;68.30;;;;;;5083108;28;19920;-71
2022/03/06 11:52:46;;;;;;;;;;;7.60;67.90;;;;;;5083980;28;19919;-70
2022/03/06 11:55:29;;;;;;;;;;;7.70;67.40;;;;;;5065572;28;20550;-70
2022/03/06 11:57:54;;;;;;;;;;;7.80;67.70;;;;;;5082053;28;19923;-70
2022/03/06 12:00:20;;;;;;;;;;;8.00;67.40;;;;;;5066420;28;19908;-71
2022/03/06 12:02:48;;;;;;;;;;;8.00;67.10;;;;;;5078830;28;20224;-70
2022/03/06 12:05:16;;;;;;;;;;;8.10;66.60;;;;;;5066319;28;20057;-70
2022/03/06 12:07:42;;;;;;;;;;;8.20;66.60;;;;;;5083926;28;19947;-70
2022/03/06 12:10:11;;;;;;;;;;;8.10;66.20;;;;;;5082012;28;19951;-70
2022/03/06 12:12:37;;;;;;;;;;;8.10;65.90;;;;;;5068653;28;20504;-71
2022/03/06 12:15:11;;;;;;;;;;;8.10;66.10;;;;;;5086241;28;19920;-71
2022/03/06 12:17:37;;;;;;;;;;;8.20;65.90;;;;;;5085987;28;19920;-71
2022/03/06 12:20:02;;;;;;;;;;;8.30;65.80;;;;;;5084970;28;19908;-71
2022/03/06 12:22:28;;;;;;;;;;;8.30;65.50;;;;;;5086290;28;19958;-70
2022/03/06 12:25:08;;;;;;;;;;;8.20;65.10;;;;;;5087194;28;19908;-67
2022/03/06 12:27:35;;;;;;;;;;;8.20;65.50;;;;;;5086345;28;19926;-71
2022/03/06 12:30:02;;;;;;;;;;;8.10;65.70;;;;;;5085171;28;19909;-72
2022/03/06 12:32:31;;;;;;;;;;;8.10;66.00;;;;;;5086664;28;20087;-71
2022/03/06 12:34:56;;;;;;;;;;;8.00;66.30;;;;;;5069724;28;20002;-72
2022/03/06 12:37:23;;;;;;;;;;;8.00;66.60;;;;;;5068854;28;20006;-72
2022/03/06 12:39:49;;;;;;;;;;;7.90;66.60;;;;;;5068284;28;19930;-72
2022/03/06 12:42:21;;;;;;;;;;;7.90;67.00;;;;;;5069715;28;19969;-71
2022/03/06 12:44:52;;;;;;;;;;;7.90;66.60;;;;;;5086981;28;20250;-72
2022/03/06 12:47:17;;;;;;;;;;;7.80;66.10;;;;;;5082998;28;19916;-72
2022/03/06 12:49:45;;;;;;;;;;;7.80;65.90;;;;;;5067331;28;19941;-72
2022/03/06 12:52:10;;;;;;;;;;;7.80;66.00;;;;;;5085859;28;19927;-72
2022/03/06 12:54:36;;;;;;;;;;;7.80;66.30;;;;;;5065862;28;20273;-72
2022/03/06 12:57:02;;;;;;;;;;;8.00;65.00;;;;;;5084230;28;20592;-72
2022/03/06 12:59:27;;;;;;;;;;;8.10;64.50;;;;;;5085150;28;19915;-72
2022/03/06 13:01:53;;;;;;;;;;;8.10;64.00;;;;;;5067794;28;20004;-72
2022/03/06 13:04:21;;;;;;;;;;;8.10;64.10;;;;;;5083626;28;19909;-72
2022/03/06 13:06:46;;;;;;;;;;;8.10;64.20;;;;;;5084012;28;19923;-71
2022/03/06 13:09:19;;;;;;;;;;;8.00;64.00;;;;;;5084493;28;20464;-72
2022/03/06 13:11:47;;;;;;;;;;;8.00;64.70;;;;;;5083728;28;19946;-72
2022/03/06 13:14:12;;;;;;;;;;;7.90;64.50;;;;;;5083811;28;19999;-72
2022/03/06 13:16:38;;;;;;;;;;;7.90;65.20;;;;;;5067309;28;19920;-72
2022/03/06 13:19:04;;;;;;;;;;;7.80;65.40;;;;;;5065294;28;20297;-72
2022/03/06 13:21:30;;;;;;;;;;;7.80;65.10;;;;;;5084402;28;19919;-72
2022/03/06 13:23:58;;;;;;;;;;;7.80;65.70;;;;;;5066379;28;20365;-72
2022/03/06 13:26:24;;;;;;;;;;;7.80;64.60;;;;;;5085277;28;20006;-72
2022/03/06 13:28:50;;;;;;;;;;;7.80;64.70;;;;;;5084393;28;19991;-72
2022/03/06 13:31:15;;;;;;;;;;;7.80;63.30;;;;;;5084677;28;19994;-72
2022/03/06 13:33:40;;;;;;;;;;;7.90;62.50;;;;;;5067284;28;20573;-72
2022/03/06 13:36:15;;;;;;;;;;;7.90;61.90;;;;;;5084444;28;19912;-72
2022/03/06 13:38:41;;;;;;;;;;;7.80;61.90;;;;;;5082428;28;19924;-71
2022/03/06 13:41:12;;;;;;;;;;;7.80;62.50;;;;;;5065173;28;19916;-71
2022/03/06 13:43:43;;;;;;;;;;;7.80;63.30;;;;;;5061794;28;20361;-72
2022/03/06 13:46:09;;;;;;;;;;;7.80;63.30;;;;;;5081516;28;19908;-71
2022/03/06 13:48:36;;;;;;;;;;;7.80;62.70;;;;;;5083307;28;19965;-71
2022/03/06 13:51:02;;;;;;;;;;;7.90;63.10;;;;;;5067086;28;19916;-71
2022/03/06 13:53:29;;;;;;;;;;;7.90;62.60;;;;;;5064471;28;19916;-71
2022/03/06 13:55:58;;;;;;;;;;;7.90;62.20;;;;;;5086103;28;19935;-71
2022/03/06 13:58:25;;;;;;;;;;;7.90;62.80;;;;;;5065079;28;19916;-71
2022/03/06 14:01:00;;;;;;;;;;;7.90;63.20;;;;;;5072279;28;19908;-71
2022/03/06 14:03:33;;;;;;;;;;;7.80;63.50;;;;;;5087377;28;19975;-71
2022/03/06 14:05:59;;;;;;;;;;;7.80;63.90;;;;;;5071706;28;19961;-71
2022/03/06 14:08:24;;;;;;;;;;;7.80;63.10;;;;;;5087520;28;19908;-71
2022/03/06 14:10:55;;;;;;;;;;;7.80;63.40;;;;;;5089806;28;19924;-72
2022/03/06 14:13:26;;;;;;;;;;;7.80;62.90;;;;;;5088346;28;19935;-71
2022/03/06 14:15:52;;;;;;;;;;;7.80;63.70;;;;;;5090000;28;19940;-71
2022/03/06 14:18:37;;;;;;;;;;;7.80;63.50;;;;;;5070262;28;20027;-71
2022/03/06 14:21:28;;;;;;;;;;;7.80;63.00;;;;;;5088939;28;19920;-71
2022/03/06 14:24:00;;;;;;;;;;;7.80;62.90;;;;;;5085445;28;19957;-72
2022/03/06 14:26:26;;;;;;;;;;;7.80;63.40;;;;;;5061503;28;19912;-72
2022/03/06 14:28:53;;;;;;;;;;;7.80;63.90;;;;;;5087415;28;19912;-72